sensor_id;sensor_type;location;lat;lon;timestamp;temperature;humidity
60353;DHT22;46196;52.970;6.954;2023-04-07T00:00:02;7.70;99.90
60353;DHT22;46196;52.970;6.954;2023-04-07T00:02:30;7.70;99.90
60353;DHT22;46196;52.970;6.954;2023-04-07T00:04:57;7.60;99.90
60353;DHT22;46196;52.970;6.954;2023-04-07T00:07:23;7.70;99.90
60353;DHT22;46196;52.970;6.954;2023-04-07T00:09:49;7.70;99.90
60353;DHT22;46196;52.970;6.954;2023-04-07T00:12:15;7.60;99.90
60353;DHT22;46196;52.970;6.954;2023-04-07T00:14:41;6.40;99.90
60353;DHT22;46196;52.970;6.954;2023-04-07T00:17:07;7.60;99.90
60353;DHT22;46196;52.970;6.954;2023-04-07T00:19:33;7.60;99.90
60353;DHT22;46196;52.970;6.954;2023-04-07T00:21:58;7.70;99.90
60353;DHT22;46196;52.970;6.954;2023-04-07T00:24:24;7.70;99.90
60353;DHT22;46196;52.970;6.954;2023-04-07T00:26:50;7.70;99.90
60353;DHT22;46196;52.970;6.954;2023-04-07T00:29:16;7.70;99.90
60353;DHT22;46196;52.970;6.954;2023-04-07T00:31:42;7.40;99.90
60353;DHT22;46196;52.970;6.954;2023-04-07T00:34:07;7.70;99.90
60353;DHT22;46196;52.970;6.954;2023-04-07T00:36:33;7.70;99.90
60353;DHT22;46196;52.970;6.954;2023-04-07T00:38:59;7.70;99.90
60353;DHT22;46196;52.970;6.954;2023-04-07T00:41:25;7.70;99.90
60353;DHT22;46196;52.970;6.954;2023-04-07T00:43:50;7.70;99.90
60353;DHT22;46196;52.970;6.954;2023-04-07T00:46:18;7.70;99.90
60353;DHT22;46196;52.970;6.954;2023-04-07T00:48:46;7.70;99.90
60353;DHT22;46196;52.970;6.954;2023-04-07T00:51:12;7.70;99.90
60353;DHT22;46196;52.970;6.954;2023-04-07T00:53:38;7.70;99.90
60353;DHT22;46196;52.970;6.954;2023-04-07T00:56:05;7.70;99.90
60353;DHT22;46196;52.970;6.954;2023-04-07T00:58:31;7.70;99.90
60353;DHT22;46196;52.970;6.954;2023-04-07T01:01:03;7.70;99.90
60353;DHT22;46196;52.970;6.954;2023-04-07T01:03:42;9.40;99.90
60353;DHT22;46196;52.970;6.954;2023-04-07T01:06:13;7.70;99.90
60353;DHT22;46196;52.970;6.954;2023-04-07T01:08:50;7.70;99.90
60353;DHT22;46196;52.970;6.954;2023-04-07T01:11:29;7.70;99.90
60353;DHT22;46196;52.970;6.954;2023-04-07T01:13:57;7.70;99.90
60353;DHT22;46196;52.970;6.954;2023-04-07T01:16:35;7.70;99.90
60353;DHT22;46196;52.970;6.954;2023-04-07T01:19:14;7.70;99.90
60353;DHT22;46196;52.970;6.954;2023-04-07T01:21:43;7.70;99.90
60353;DHT22;46196;52.970;6.954;2023-04-07T01:30:27;7.70;99.90
60353;DHT22;46196;52.970;6.954;2023-04-07T01:32:55;7.70;99.90
60353;DHT22;46196;52.970;6.954;2023-04-07T01:35:23;7.70;99.90
60353;DHT22;46196;52.970;6.954;2023-04-07T01:37:50;10.00;99.90
60353;DHT22;46196;52.970;6.954;2023-04-07T01:40:17;7.70;99.90
60353;DHT22;46196;52.970;6.954;2023-04-07T01:42:45;7.70;99.90
60353;DHT22;46196;52.970;6.954;2023-04-07T01:45:12;7.70;99.90
60353;DHT22;46196;52.970;6.954;2023-04-07T01:47:38;7.70;99.90
60353;DHT22;46196;52.970;6.954;2023-04-07T01:50:05;7.70;99.90
60353;DHT22;46196;52.970;6.954;2023-04-07T01:52:34;7.70;99.90
60353;DHT22;46196;52.970;6.954;2023-04-07T01:55:02;7.70;99.90
60353;DHT22;46196;52.970;6.954;2023-04-07T01:57:28;7.70;99.90
60353;DHT22;46196;52.970;6.954;2023-04-07T01:59:53;7.70;99.90
60353;DHT22;46196;52.970;6.954;2023-04-07T02:02:20;7.70;99.90
60353;DHT22;46196;52.970;6.954;2023-04-07T02:04:55;7.70;99.90
60353;DHT22;46196;52.970;6.954;2023-04-07T02:07:40;7.70;99.90
60353;DHT22;46196;52.970;6.954;2023-04-07T02:10:10;7.70;99.90
60353;DHT22;46196;52.970;6.954;2023-04-07T02:12:37;7.70;99.90
60353;DHT22;46196;52.970;6.954;2023-04-07T02:15:07;7.70;99.90
60353;DHT22;46196;52.970;6.954;2023-04-07T02:17:35;7.70;99.90
60353;DHT22;46196;52.970;6.954;2023-04-07T02:20:03;7.70;99.90
60353;DHT22;46196;52.970;6.954;2023-04-07T02:22:31;8.20;99.90
60353;DHT22;46196;52.970;6.954;2023-04-07T02:24:57;7.60;99.90
60353;DHT22;46196;52.970;6.954;2023-04-07T02:27:23;7.60;99.90
60353;DHT22;46196;52.970;6.954;2023-04-07T02:29:49;7.60;99.90
60353;DHT22;46196;52.970;6.954;2023-04-07T02:32:15;6.70;99.90
60353;DHT22;46196;52.970;6.954;2023-04-07T02:34:42;7.60;99.90
60353;DHT22;46196;52.970;6.954;2023-04-07T02:37:08;7.60;99.90
60353;DHT22;46196;52.970;6.954;2023-04-07T02:39:34;7.60;99.90
60353;DHT22;46196;52.970;6.954;2023-04-07T02:41:59;7.60;99.90
60353;DHT22;46196;52.970;6.954;2023-04-07T02:44:25;7.60;99.90
60353;DHT22;46196;52.970;6.954;2023-04-07T02:46:51;7.50;99.90
60353;DHT22;46196;52.970;6.954;2023-04-07T02:49:17;7.50;99.90
60353;DHT22;46196;52.970;6.954;2023-04-07T02:51:42;7.60;99.90
60353;DHT22;46196;52.970;6.954;2023-04-07T02:54:08;7.50;99.90
60353;DHT22;46196;52.970;6.954;2023-04-07T02:56:34;7.70;99.90
60353;DHT22;46196;52.970;6.954;2023-04-07T02:59:00;7.50;99.90
60353;DHT22;46196;52.970;6.954;2023-04-07T03:01:26;7.50;99.90
60353;DHT22;46196;52.970;6.954;2023-04-07T03:03:52;7.50;99.90
60353;DHT22;46196;52.970;6.954;2023-04-07T03:06:18;7.50;99.90
60353;DHT22;46196;52.970;6.954;2023-04-07T03:08:43;7.50;99.90
60353;DHT22;46196;52.970;6.954;2023-04-07T03:11:09;7.50;99.90
60353;DHT22;46196;52.970;6.954;2023-04-07T03:13:35;7.50;99.90
60353;DHT22;46196;52.970;6.954;2023-04-07T03:16:01;7.50;99.90
60353;DHT22;46196;52.970;6.954;2023-04-07T03:18:27;7.60;99.90
60353;DHT22;46196;52.970;6.954;2023-04-07T03:20:52;7.40;99.90
60353;DHT22;46196;52.970;6.954;2023-04-07T03:23:19;7.40;99.90
60353;DHT22;46196;52.970;6.954;2023-04-07T03:25:45;7.40;99.90
60353;DHT22;46196;52.970;6.954;2023-04-07T03:28:11;7.40;99.90
60353;DHT22;46196;52.970;6.954;2023-04-07T03:30:37;7.40;99.90
60353;DHT22;46196;52.970;6.954;2023-04-07T03:33:03;7.40;99.90
60353;DHT22;46196;52.970;6.954;2023-04-07T03:35:28;7.40;99.90
60353;DHT22;46196;52.970;6.954;2023-04-07T03:37:54;7.40;99.90
60353;DHT22;46196;52.970;6.954;2023-04-07T03:40:20;7.40;99.90
60353;DHT22;46196;52.970;6.954;2023-04-07T03:42:47;7.40;99.90
60353;DHT22;46196;52.970;6.954;2023-04-07T03:45:13;7.40;99.90
60353;DHT22;46196;52.970;6.954;2023-04-07T03:47:38;7.40;99.90
60353;DHT22;46196;52.970;6.954;2023-04-07T03:50:05;7.30;99.90
60353;DHT22;46196;52.970;6.954;2023-04-07T03:52:31;7.40;99.90
60353;DHT22;46196;52.970;6.954;2023-04-07T03:54:56;7.30;99.90
60353;DHT22;46196;52.970;6.954;2023-04-07T03:57:22;7.30;99.90
60353;DHT22;46196;52.970;6.954;2023-04-07T03:59:49;7.30;99.90
60353;DHT22;46196;52.970;6.954;2023-04-07T04:02:16;7.30;99.90
60353;DHT22;46196;52.970;6.954;2023-04-07T04:04:42;7.30;99.90
60353;DHT22;46196;52.970;6.954;2023-04-07T04:07:08;7.30;99.90
60353;DHT22;46196;52.970;6.954;2023-04-07T04:09:34;7.30;99.90
60353;DHT22;46196;52.970;6.954;2023-04-07T04:12:00;7.30;99.90
60353;DHT22;46196;52.970;6.954;2023-04-07T04:14:26;6.80;99.90
60353;DHT22;46196;52.970;6.954;2023-04-07T04:16:53;7.30;99.90
60353;DHT22;46196;52.970;6.954;2023-04-07T04:19:18;7.30;99.90
60353;DHT22;46196;52.970;6.954;2023-04-07T04:21:44;7.30;99.90
60353;DHT22;46196;52.970;6.954;2023-04-07T04:24:10;7.30;99.90
60353;DHT22;46196;52.970;6.954;2023-04-07T04:26:36;7.30;99.90
60353;DHT22;46196;52.970;6.954;2023-04-07T04:29:02;7.70;99.90
60353;DHT22;46196;52.970;6.954;2023-04-07T04:31:28;7.30;99.90
60353;DHT22;46196;52.970;6.954;2023-04-07T04:33:54;7.30;99.90
60353;DHT22;46196;52.970;6.954;2023-04-07T04:36:19;7.30;99.90
60353;DHT22;46196;52.970;6.954;2023-04-07T04:38:45;7.20;99.90
60353;DHT22;46196;52.970;6.954;2023-04-07T04:41:11;7.20;99.90
60353;DHT22;46196;52.970;6.954;2023-04-07T04:43:37;6.20;99.90
60353;DHT22;46196;52.970;6.954;2023-04-07T04:46:02;9.90;99.90
60353;DHT22;46196;52.970;6.954;2023-04-07T04:48:28;7.20;99.90
60353;DHT22;46196;52.970;6.954;2023-04-07T04:50:54;7.20;99.90
60353;DHT22;46196;52.970;6.954;2023-04-07T04:53:20;7.20;99.90
60353;DHT22;46196;52.970;6.954;2023-04-07T04:55:45;7.20;99.90
60353;DHT22;46196;52.970;6.954;2023-04-07T04:58:17;7.20;99.90
60353;DHT22;46196;52.970;6.954;2023-04-07T05:00:43;7.20;99.90
60353;DHT22;46196;52.970;6.954;2023-04-07T05:03:08;7.20;99.90
60353;DHT22;46196;52.970;6.954;2023-04-07T05:05:34;6.40;99.90
60353;DHT22;46196;52.970;6.954;2023-04-07T05:08:00;7.20;99.90
60353;DHT22;46196;52.970;6.954;2023-04-07T05:10:26;7.20;99.90
60353;DHT22;46196;52.970;6.954;2023-04-07T05:12:52;7.50;99.90
60353;DHT22;46196;52.970;6.954;2023-04-07T05:15:17;7.10;99.90
60353;DHT22;46196;52.970;6.954;2023-04-07T05:17:43;7.90;99.90
60353;DHT22;46196;52.970;6.954;2023-04-07T05:20:15;7.10;99.90
60353;DHT22;46196;52.970;6.954;2023-04-07T05:22:41;7.10;99.90
60353;DHT22;46196;52.970;6.954;2023-04-07T05:25:07;8.00;99.90
60353;DHT22;46196;52.970;6.954;2023-04-07T05:27:33;7.10;99.90
60353;DHT22;46196;52.970;6.954;2023-04-07T05:29:59;7.10;99.90
60353;DHT22;46196;52.970;6.954;2023-04-07T05:32:27;7.10;99.90
60353;DHT22;46196;52.970;6.954;2023-04-07T05:34:53;7.20;99.90
60353;DHT22;46196;52.970;6.954;2023-04-07T05:37:18;7.10;99.90
60353;DHT22;46196;52.970;6.954;2023-04-07T05:39:44;7.20;99.90
60353;DHT22;46196;52.970;6.954;2023-04-07T05:42:10;7.10;99.90
60353;DHT22;46196;52.970;6.954;2023-04-07T05:44:36;7.20;99.90
60353;DHT22;46196;52.970;6.954;2023-04-07T05:47:02;7.30;99.90
60353;DHT22;46196;52.970;6.954;2023-04-07T05:49:30;7.20;99.90
60353;DHT22;46196;52.970;6.954;2023-04-07T05:51:56;7.20;99.90
60353;DHT22;46196;52.970;6.954;2023-04-07T05:54:22;7.20;99.90
60353;DHT22;46196;52.970;6.954;2023-04-07T05:56:48;7.20;99.90
60353;DHT22;46196;52.970;6.954;2023-04-07T05:59:14;7.80;99.90
60353;DHT22;46196;52.970;6.954;2023-04-07T06:01:40;7.20;99.90
60353;DHT22;46196;52.970;6.954;2023-04-07T06:04:06;7.30;99.90
60353;DHT22;46196;52.970;6.954;2023-04-07T06:06:32;7.00;99.90
60353;DHT22;46196;52.970;6.954;2023-04-07T06:08:58;7.90;99.90
60353;DHT22;46196;52.970;6.954;2023-04-07T06:11:25;6.70;99.90
60353;DHT22;46196;52.970;6.954;2023-04-07T06:13:51;7.30;99.90
60353;DHT22;46196;52.970;6.954;2023-04-07T06:16:17;7.30;99.90
60353;DHT22;46196;52.970;6.954;2023-04-07T06:18:43;7.40;99.90
60353;DHT22;46196;52.970;6.954;2023-04-07T06:21:08;7.40;99.90
60353;DHT22;46196;52.970;6.954;2023-04-07T06:23:34;8.70;99.90
60353;DHT22;46196;52.970;6.954;2023-04-07T06:26:00;7.50;99.90
60353;DHT22;46196;52.970;6.954;2023-04-07T06:28:26;7.50;99.90
60353;DHT22;46196;52.970;6.954;2023-04-07T06:30:52;7.50;99.90
60353;DHT22;46196;52.970;6.954;2023-04-07T06:33:17;7.50;99.90
60353;DHT22;46196;52.970;6.954;2023-04-07T06:35:44;7.60;99.90
60353;DHT22;46196;52.970;6.954;2023-04-07T06:38:09;7.40;99.90
60353;DHT22;46196;52.970;6.954;2023-04-07T06:40:36;7.70;99.90
60353;DHT22;46196;52.970;6.954;2023-04-07T06:43:02;7.70;99.90
60353;DHT22;46196;52.970;6.954;2023-04-07T06:45:28;7.80;99.90
60353;DHT22;46196;52.970;6.954;2023-04-07T06:47:54;7.80;99.90
60353;DHT22;46196;52.970;6.954;2023-04-07T06:50:20;7.90;99.90
60353;DHT22;46196;52.970;6.954;2023-04-07T06:52:47;7.90;99.90
60353;DHT22;46196;52.970;6.954;2023-04-07T06:55:13;8.00;99.90
60353;DHT22;46196;52.970;6.954;2023-04-07T06:57:38;8.00;99.90
60353;DHT22;46196;52.970;6.954;2023-04-07T07:00:05;8.00;99.90
60353;DHT22;46196;52.970;6.954;2023-04-07T07:02:32;8.10;99.90
60353;DHT22;46196;52.970;6.954;2023-04-07T07:04:58;8.10;99.90
60353;DHT22;46196;52.970;6.954;2023-04-07T07:07:24;8.20;99.90
60353;DHT22;46196;52.970;6.954;2023-04-07T07:09:51;8.20;99.90
60353;DHT22;46196;52.970;6.954;2023-04-07T07:12:16;8.20;99.90
60353;DHT22;46196;52.970;6.954;2023-04-07T07:14:43;8.30;99.90
60353;DHT22;46196;52.970;6.954;2023-04-07T07:17:08;8.40;99.90
60353;DHT22;46196;52.970;6.954;2023-04-07T07:19:34;8.40;99.90
60353;DHT22;46196;52.970;6.954;2023-04-07T07:22:01;8.40;99.90
60353;DHT22;46196;52.970;6.954;2023-04-07T07:24:29;8.40;99.90
60353;DHT22;46196;52.970;6.954;2023-04-07T07:26:55;8.50;99.90
60353;DHT22;46196;52.970;6.954;2023-04-07T07:29:21;8.50;99.90
60353;DHT22;46196;52.970;6.954;2023-04-07T07:31:47;8.50;99.90
60353;DHT22;46196;52.970;6.954;2023-04-07T07:34:13;8.50;99.90
60353;DHT22;46196;52.970;6.954;2023-04-07T07:36:39;8.60;99.90
60353;DHT22;46196;52.970;6.954;2023-04-07T07:39:05;8.60;99.90
60353;DHT22;46196;52.970;6.954;2023-04-07T07:41:31;8.60;99.90
60353;DHT22;46196;52.970;6.954;2023-04-07T07:43:56;8.60;99.90
60353;DHT22;46196;52.970;6.954;2023-04-07T07:46:22;8.60;99.90
60353;DHT22;46196;52.970;6.954;2023-04-07T07:48:50;8.60;99.90
60353;DHT22;46196;52.970;6.954;2023-04-07T07:51:16;8.60;99.90
60353;DHT22;46196;52.970;6.954;2023-04-07T07:53:43;10.10;99.90
60353;DHT22;46196;52.970;6.954;2023-04-07T07:56:10;8.60;99.90
60353;DHT22;46196;52.970;6.954;2023-04-07T07:58:36;8.60;99.90
60353;DHT22;46196;52.970;6.954;2023-04-07T08:01:02;8.60;99.90
60353;DHT22;46196;52.970;6.954;2023-04-07T08:03:28;8.60;99.90
60353;DHT22;46196;52.970;6.954;2023-04-07T08:05:54;8.60;99.90
60353;DHT22;46196;52.970;6.954;2023-04-07T08:08:20;8.00;99.90
60353;DHT22;46196;52.970;6.954;2023-04-07T08:10:45;9.40;99.90
60353;DHT22;46196;52.970;6.954;2023-04-07T08:13:11;8.70;99.90
60353;DHT22;46196;52.970;6.954;2023-04-07T08:15:38;8.80;99.90
60353;DHT22;46196;52.970;6.954;2023-04-07T08:18:04;8.80;99.90
60353;DHT22;46196;52.970;6.954;2023-04-07T08:20:31;8.80;99.90
60353;DHT22;46196;52.970;6.954;2023-04-07T08:22:58;8.90;99.90
60353;DHT22;46196;52.970;6.954;2023-04-07T08:25:25;8.90;99.90
60353;DHT22;46196;52.970;6.954;2023-04-07T08:27:53;9.00;99.90
60353;DHT22;46196;52.970;6.954;2023-04-07T08:30:20;9.10;99.90
60353;DHT22;46196;52.970;6.954;2023-04-07T08:32:46;9.10;99.90
60353;DHT22;46196;52.970;6.954;2023-04-07T08:35:12;9.30;99.90
60353;DHT22;46196;52.970;6.954;2023-04-07T08:37:38;9.40;99.90
60353;DHT22;46196;52.970;6.954;2023-04-07T08:40:05;9.50;99.90
60353;DHT22;46196;52.970;6.954;2023-04-07T08:42:33;9.50;99.90
60353;DHT22;46196;52.970;6.954;2023-04-07T08:45:06;9.60;99.90
60353;DHT22;46196;52.970;6.954;2023-04-07T08:47:34;9.60;99.90
60353;DHT22;46196;52.970;6.954;2023-04-07T08:50:03;9.60;99.90
60353;DHT22;46196;52.970;6.954;2023-04-07T08:55:11;9.70;99.90
60353;DHT22;46196;52.970;6.954;2023-04-07T08:57:38;9.70;99.90
60353;DHT22;46196;52.970;6.954;2023-04-07T09:00:05;9.70;99.90
60353;DHT22;46196;52.970;6.954;2023-04-07T09:02:41;9.70;99.90
60353;DHT22;46196;52.970;6.954;2023-04-07T09:05:12;9.80;99.90
60353;DHT22;46196;52.970;6.954;2023-04-07T09:07:41;9.80;99.90
60353;DHT22;46196;52.970;6.954;2023-04-07T09:10:10;9.80;99.90
60353;DHT22;46196;52.970;6.954;2023-04-07T09:12:36;9.90;99.90
60353;DHT22;46196;52.970;6.954;2023-04-07T09:15:03;9.90;99.90
60353;DHT22;46196;52.970;6.954;2023-04-07T09:17:30;9.90;99.90
60353;DHT22;46196;52.970;6.954;2023-04-07T09:19:57;10.00;99.90
60353;DHT22;46196;52.970;6.954;2023-04-07T09:22:37;9.90;99.90
60353;DHT22;46196;52.970;6.954;2023-04-07T09:25:17;9.90;99.90
60353;DHT22;46196;52.970;6.954;2023-04-07T09:27:53;10.00;99.90
60353;DHT22;46196;52.970;6.954;2023-04-07T09:30:19;10.10;99.90
60353;DHT22;46196;52.970;6.954;2023-04-07T09:32:45;10.20;99.90
60353;DHT22;46196;52.970;6.954;2023-04-07T09:35:11;10.60;99.90
60353;DHT22;46196;52.970;6.954;2023-04-07T09:37:37;10.80;99.90
60353;DHT22;46196;52.970;6.954;2023-04-07T09:40:03;11.00;99.90
60353;DHT22;46196;52.970;6.954;2023-04-07T09:42:29;11.10;99.90
60353;DHT22;46196;52.970;6.954;2023-04-07T09:45:00;11.10;99.90
60353;DHT22;46196;52.970;6.954;2023-04-07T09:47:30;11.10;99.90
60353;DHT22;46196;52.970;6.954;2023-04-07T09:49:56;11.00;99.90
60353;DHT22;46196;52.970;6.954;2023-04-07T09:52:51;11.00;99.90
60353;DHT22;46196;52.970;6.954;2023-04-07T09:55:21;11.10;99.90
60353;DHT22;46196;52.970;6.954;2023-04-07T09:57:51;11.10;99.90
60353;DHT22;46196;52.970;6.954;2023-04-07T10:00:19;11.10;99.90
60353;DHT22;46196;52.970;6.954;2023-04-07T10:02:45;11.00;99.90
60353;DHT22;46196;52.970;6.954;2023-04-07T10:05:12;11.00;99.90
60353;DHT22;46196;52.970;6.954;2023-04-07T10:07:38;11.00;99.90
60353;DHT22;46196;52.970;6.954;2023-04-07T10:10:05;11.00;99.90
60353;DHT22;46196;52.970;6.954;2023-04-07T10:12:42;11.00;99.90
60353;DHT22;46196;52.970;6.954;2023-04-07T10:15:12;11.00;99.90
60353;DHT22;46196;52.970;6.954;2023-04-07T10:17:47;10.90;99.90
60353;DHT22;46196;52.970;6.954;2023-04-07T10:20:16;11.00;99.90
60353;DHT22;46196;52.970;6.954;2023-04-07T10:22:43;11.00;99.90
60353;DHT22;46196;52.970;6.954;2023-04-07T10:25:12;11.00;99.90
60353;DHT22;46196;52.970;6.954;2023-04-07T10:27:40;11.10;99.90
60353;DHT22;46196;52.970;6.954;2023-04-07T10:30:26;11.20;99.90
60353;DHT22;46196;52.970;6.954;2023-04-07T10:32:53;11.40;99.90
60353;DHT22;46196;52.970;6.954;2023-04-07T10:35:19;11.70;99.90
60353;DHT22;46196;52.970;6.954;2023-04-07T10:40:42;11.70;99.90
60353;DHT22;46196;52.970;6.954;2023-04-07T10:43:08;12.00;99.90
60353;DHT22;46196;52.970;6.954;2023-04-07T10:50:30;12.10;99.90
60353;DHT22;46196;52.970;6.954;2023-04-07T10:53:06;12.20;99.90
60353;DHT22;46196;52.970;6.954;2023-04-07T10:55:39;12.50;99.90
60353;DHT22;46196;52.970;6.954;2023-04-07T10:58:15;12.70;99.90
60353;DHT22;46196;52.970;6.954;2023-04-07T11:00:42;12.70;99.90
60353;DHT22;46196;52.970;6.954;2023-04-07T11:03:11;13.10;99.90
60353;DHT22;46196;52.970;6.954;2023-04-07T11:05:41;13.20;99.90
60353;DHT22;46196;52.970;6.954;2023-04-07T11:08:07;13.30;99.90
60353;DHT22;46196;52.970;6.954;2023-04-07T11:10:34;13.60;99.90
60353;DHT22;46196;52.970;6.954;2023-04-07T11:13:07;13.80;99.90
60353;DHT22;46196;52.970;6.954;2023-04-07T11:15:36;13.90;99.90
60353;DHT22;46196;52.970;6.954;2023-04-07T11:18:12;13.80;99.90
60353;DHT22;46196;52.970;6.954;2023-04-07T11:20:53;13.80;99.90
60353;DHT22;46196;52.970;6.954;2023-04-07T11:23:21;13.80;99.90
60353;DHT22;46196;52.970;6.954;2023-04-07T11:25:51;13.80;99.90
60353;DHT22;46196;52.970;6.954;2023-04-07T11:28:17;13.80;99.90
60353;DHT22;46196;52.970;6.954;2023-04-07T11:30:51;13.90;99.90
60353;DHT22;46196;52.970;6.954;2023-04-07T11:33:24;14.00;99.90
60353;DHT22;46196;52.970;6.954;2023-04-07T11:35:56;14.20;99.90
60353;DHT22;46196;52.970;6.954;2023-04-07T11:38:24;14.20;99.90
60353;DHT22;46196;52.970;6.954;2023-04-07T11:40:50;14.30;99.90
60353;DHT22;46196;52.970;6.954;2023-04-07T11:43:17;14.40;99.90
60353;DHT22;46196;52.970;6.954;2023-04-07T11:45:43;14.50;99.90
60353;DHT22;46196;52.970;6.954;2023-04-07T11:48:29;14.60;99.90
60353;DHT22;46196;52.970;6.954;2023-04-07T11:50:55;14.50;99.90
60353;DHT22;46196;52.970;6.954;2023-04-07T11:53:29;14.40;99.90
60353;DHT22;46196;52.970;6.954;2023-04-07T11:58:32;14.10;99.90
60353;DHT22;46196;52.970;6.954;2023-04-07T12:00:59;14.10;99.90
60353;DHT22;46196;52.970;6.954;2023-04-07T12:03:30;14.10;99.90
60353;DHT22;46196;52.970;6.954;2023-04-07T12:05:56;14.00;99.90
60353;DHT22;46196;52.970;6.954;2023-04-07T12:08:42;13.90;99.90
60353;DHT22;46196;52.970;6.954;2023-04-07T12:11:09;13.90;99.90
60353;DHT22;46196;52.970;6.954;2023-04-07T12:13:36;14.00;99.90
60353;DHT22;46196;52.970;6.954;2023-04-07T12:16:02;14.00;99.90
60353;DHT22;46196;52.970;6.954;2023-04-07T12:18:28;14.00;99.90
60353;DHT22;46196;52.970;6.954;2023-04-07T12:20:54;14.00;99.90
60353;DHT22;46196;52.970;6.954;2023-04-07T12:23:21;14.00;99.90
60353;DHT22;46196;52.970;6.954;2023-04-07T12:25:47;14.00;99.90
60353;DHT22;46196;52.970;6.954;2023-04-07T12:28:13;14.00;99.90
60353;DHT22;46196;52.970;6.954;2023-04-07T12:30:39;14.00;99.90
60353;DHT22;46196;52.970;6.954;2023-04-07T12:33:05;14.10;99.90
60353;DHT22;46196;52.970;6.954;2023-04-07T12:35:31;14.20;99.90
60353;DHT22;46196;52.970;6.954;2023-04-07T12:37:57;14.20;99.90
60353;DHT22;46196;52.970;6.954;2023-04-07T12:40:23;14.20;99.90
60353;DHT22;46196;52.970;6.954;2023-04-07T12:42:49;14.20;99.90
60353;DHT22;46196;52.970;6.954;2023-04-07T12:45:15;14.20;99.90
60353;DHT22;46196;52.970;6.954;2023-04-07T12:47:43;14.20;99.90
60353;DHT22;46196;52.970;6.954;2023-04-07T12:50:09;14.30;99.90
60353;DHT22;46196;52.970;6.954;2023-04-07T12:52:36;14.30;99.90
60353;DHT22;46196;52.970;6.954;2023-04-07T12:55:02;14.30;99.90
60353;DHT22;46196;52.970;6.954;2023-04-07T12:57:27;14.30;99.90
60353;DHT22;46196;52.970;6.954;2023-04-07T12:59:53;14.30;99.90
60353;DHT22;46196;52.970;6.954;2023-04-07T13:02:19;14.30;99.90
60353;DHT22;46196;52.970;6.954;2023-04-07T13:04:46;14.40;99.90
60353;DHT22;46196;52.970;6.954;2023-04-07T13:07:12;14.40;99.90
60353;DHT22;46196;52.970;6.954;2023-04-07T13:09:39;14.40;99.90
60353;DHT22;46196;52.970;6.954;2023-04-07T13:12:11;14.70;99.90
60353;DHT22;46196;52.970;6.954;2023-04-07T13:14:38;14.80;99.90
60353;DHT22;46196;52.970;6.954;2023-04-07T13:17:05;14.80;99.90
60353;DHT22;46196;52.970;6.954;2023-04-07T13:19:31;15.10;99.90
60353;DHT22;46196;52.970;6.954;2023-04-07T13:21:57;15.30;99.90
60353;DHT22;46196;52.970;6.954;2023-04-07T13:24:23;15.40;99.90
60353;DHT22;46196;52.970;6.954;2023-04-07T13:26:50;15.50;99.90
60353;DHT22;46196;52.970;6.954;2023-04-07T13:29:17;15.60;99.90
60353;DHT22;46196;52.970;6.954;2023-04-07T13:31:46;15.60;99.90
60353;DHT22;46196;52.970;6.954;2023-04-07T13:34:12;15.50;99.90
60353;DHT22;46196;52.970;6.954;2023-04-07T13:36:39;15.40;99.90
60353;DHT22;46196;52.970;6.954;2023-04-07T13:39:05;14.60;99.90
60353;DHT22;46196;52.970;6.954;2023-04-07T13:41:31;15.20;99.90
60353;DHT22;46196;52.970;6.954;2023-04-07T13:43:57;15.20;99.90
60353;DHT22;46196;52.970;6.954;2023-04-07T13:46:24;15.20;99.90
60353;DHT22;46196;52.970;6.954;2023-04-07T13:48:50;15.20;99.90
60353;DHT22;46196;52.970;6.954;2023-04-07T13:51:16;15.10;99.90
60353;DHT22;46196;52.970;6.954;2023-04-07T13:53:41;15.10;99.90
60353;DHT22;46196;52.970;6.954;2023-04-07T13:56:07;15.10;99.90
60353;DHT22;46196;52.970;6.954;2023-04-07T13:58:34;15.20;99.90
60353;DHT22;46196;52.970;6.954;2023-04-07T14:01:01;15.20;99.90
60353;DHT22;46196;52.970;6.954;2023-04-07T14:03:27;15.30;99.90
60353;DHT22;46196;52.970;6.954;2023-04-07T14:05:53;15.30;99.90
60353;DHT22;46196;52.970;6.954;2023-04-07T14:08:22;14.40;99.90
60353;DHT22;46196;52.970;6.954;2023-04-07T14:10:49;15.50;99.90
60353;DHT22;46196;52.970;6.954;2023-04-07T14:13:14;14.30;99.90
60353;DHT22;46196;52.970;6.954;2023-04-07T14:15:40;15.60;99.90
60353;DHT22;46196;52.970;6.954;2023-04-07T14:18:06;15.80;99.90
60353;DHT22;46196;52.970;6.954;2023-04-07T14:20:32;15.50;99.90
60353;DHT22;46196;52.970;6.954;2023-04-07T14:22:58;16.10;99.90
60353;DHT22;46196;52.970;6.954;2023-04-07T14:25:24;16.20;99.80
60353;DHT22;46196;52.970;6.954;2023-04-07T14:27:50;16.20;99.90
60353;DHT22;46196;52.970;6.954;2023-04-07T14:30:17;16.20;98.90
60353;DHT22;46196;52.970;6.954;2023-04-07T14:32:43;16.20;99.50
60353;DHT22;46196;52.970;6.954;2023-04-07T14:35:09;16.10;98.10
60353;DHT22;46196;52.970;6.954;2023-04-07T14:37:35;16.00;98.20
60353;DHT22;46196;52.970;6.954;2023-04-07T14:40:02;15.90;96.80
60353;DHT22;46196;52.970;6.954;2023-04-07T14:42:30;15.80;94.70
60353;DHT22;46196;52.970;6.954;2023-04-07T14:44:57;15.60;94.20
60353;DHT22;46196;52.970;6.954;2023-04-07T14:47:23;15.60;95.60
60353;DHT22;46196;52.970;6.954;2023-04-07T14:49:50;15.60;94.00
60353;DHT22;46196;52.970;6.954;2023-04-07T14:52:16;15.70;91.30
60353;DHT22;46196;52.970;6.954;2023-04-07T14:54:42;15.70;93.60
60353;DHT22;46196;52.970;6.954;2023-04-07T14:57:08;15.70;92.40
60353;DHT22;46196;52.970;6.954;2023-04-07T14:59:34;15.60;91.40
60353;DHT22;46196;52.970;6.954;2023-04-07T15:01:59;15.60;90.00
60353;DHT22;46196;52.970;6.954;2023-04-07T15:04:25;15.40;92.10
60353;DHT22;46196;52.970;6.954;2023-04-07T15:06:51;15.40;92.60
60353;DHT22;46196;52.970;6.954;2023-04-07T15:09:17;15.40;93.50
60353;DHT22;46196;52.970;6.954;2023-04-07T15:11:43;15.40;90.80
60353;DHT22;46196;52.970;6.954;2023-04-07T15:14:11;15.30;89.60
60353;DHT22;46196;52.970;6.954;2023-04-07T15:16:36;15.10;89.30
60353;DHT22;46196;52.970;6.954;2023-04-07T15:19:02;15.00;90.60
60353;DHT22;46196;52.970;6.954;2023-04-07T15:21:28;16.30;86.10
60353;DHT22;46196;52.970;6.954;2023-04-07T15:23:54;14.80;87.80
60353;DHT22;46196;52.970;6.954;2023-04-07T15:26:20;14.70;89.20
60353;DHT22;46196;52.970;6.954;2023-04-07T15:28:46;14.60;84.00
60353;DHT22;46196;52.970;6.954;2023-04-07T15:31:12;14.60;90.60
60353;DHT22;46196;52.970;6.954;2023-04-07T15:33:39;14.50;87.30
60353;DHT22;46196;52.970;6.954;2023-04-07T15:36:06;14.40;85.20
60353;DHT22;46196;52.970;6.954;2023-04-07T15:38:32;14.40;88.20
60353;DHT22;46196;52.970;6.954;2023-04-07T15:40:58;14.40;88.80
60353;DHT22;46196;52.970;6.954;2023-04-07T15:43:24;14.30;87.90
60353;DHT22;46196;52.970;6.954;2023-04-07T15:45:50;14.20;85.50
60353;DHT22;46196;52.970;6.954;2023-04-07T15:48:16;14.30;87.50
60353;DHT22;46196;52.970;6.954;2023-04-07T15:50:42;14.40;88.20
60353;DHT22;46196;52.970;6.954;2023-04-07T15:53:09;14.50;87.00
60353;DHT22;46196;52.970;6.954;2023-04-07T15:55:38;15.10;90.20
60353;DHT22;46196;52.970;6.954;2023-04-07T15:58:05;14.40;91.40